Time;durP1;ratioP1;P1;durP2;ratioP2;P2;SDS_P1;SDS_P2;PMS_P1;PMS_P2;Temp;Humidity;BMP_temperature;BMP_pressure;BME280_temperature;BME280_humidity;BME280_pressure;Samples;Min_cycle;Max_cycle;Signal;HPM_P1;HPM_P2
2022/02/21 00:04:53;;;;;;;0.43;0.30;;;;;;;8.30;57.50;95419.47;4833205;29;20421;-85
2022/02/21 00:07:58;;;;;;;0.38;0.30;;;;;;;8.30;57.03;95408.63;4860573;29;20157;-83
2022/02/21 00:10:26;;;;;;;0.15;0.10;;;;;;;8.26;57.75;95396.03;4874038;29;20057;-81
2022/02/21 00:15:50;;;;;;;1.45;0.40;;;;;;;8.26;57.96;95383.25;4868997;29;20038;-81
2022/02/21 00:20:52;;;;;;;0.45;0.17;;;;;;;8.29;57.87;95360.09;5242236;23;20050;-82
2022/02/21 00:23:22;;;;;;;0.65;0.22;;;;;;;8.29;58.15;95360.09;4954598;23;20076;-82
2022/02/21 00:25:53;;;;;;;0.45;0.25;;;;;;;8.33;57.29;95363.75;4869597;29;20046;-81
2022/02/21 00:28:21;;;;;;;0.38;0.20;;;;;;;8.29;58.07;95360.09;4870627;29;20057;-81
2022/02/21 00:30:47;;;;;;;1.08;0.38;;;;;;;8.28;58.26;95353.88;4861115;23;20153;-82
2022/02/21 00:33:15;;;;;;;1.38;0.52;;;;;;;8.26;58.21;95349.94;4806460;29;20054;-81
2022/02/21 00:35:43;;;;;;;0.50;0.30;;;;;;;8.32;57.76;95354.03;4815557;29;20090;-82
2022/02/21 00:38:15;;;;;;;1.90;0.38;;;;;;;8.33;58.78;95333.91;4806374;29;20089;-82
2022/02/21 00:40:45;;;;;;;1.33;0.22;;;;;;;8.34;58.20;95349.84;4827303;29;20047;-81
2022/02/21 00:45:55;;;;;;;1.25;0.25;;;;;;;8.36;58.11;95355.00;4878509;23;20445;-81
2022/02/21 00:48:22;;;;;;;0.57;0.30;;;;;;;8.35;58.59;95328.94;4878885;29;20077;-83
2022/02/21 00:50:53;;;;;;;3.05;0.30;;;;;;;8.35;59.18;95337.09;4876813;29;20062;-80
2022/02/21 00:53:19;;;;;;;2.63;0.30;;;;;;;8.26;59.52;95317.38;5105252;23;20244;-83
2022/02/21 00:55:50;;;;;;;0.45;0.28;;;;;;;8.30;59.17;95329.13;4876629;29;20265;-82
2022/02/21 01:01:00;;;;;;;1.83;0.30;;;;;;;8.32;59.25;95305.22;4911006;24;20075;-81
2022/02/21 01:03:58;;;;;;;0.57;0.25;;;;;;;8.35;57.98;95318.09;4840402;29;20044;-82
2022/02/21 01:06:24;;;;;;;0.45;0.20;;;;;;;8.39;57.56;95300.09;4942378;23;20051;-80
2022/02/21 01:08:53;;;;;;;0.25;0.20;;;;;;;8.35;57.63;95280.94;4813925;29;20118;-81
2022/02/21 01:11:30;;;;;;;0.20;0.20;;;;;;;8.36;58.17;95271.72;4806410;29;20105;-82
2022/02/21 01:13:58;;;;;;;0.63;0.30;;;;;;;8.35;57.46;95280.13;4809849;29;20066;-81
2022/02/21 01:16:32;;;;;;;0.43;0.20;;;;;;;8.31;57.37;95271.88;4800384;29;20050;-80
2022/02/21 01:19:02;;;;;;;0.10;0.10;;;;;;;8.40;57.71;95284.59;4819190;29;20134;-83
2022/02/21 01:21:31;;;;;;;0.63;0.28;;;;;;;8.43;57.44;95257.63;4786870;29;20095;-81
2022/02/21 01:24:06;;;;;;;1.90;0.20;;;;;;;8.39;57.02;95245.81;4798946;29;20051;-82
2022/02/21 01:26:42;;;;;;;0.65;0.30;;;;;;;8.32;57.79;95251.75;4799158;29;20126;-82
2022/02/21 01:29:15;;;;;;;0.70;0.30;;;;;;;8.33;57.60;95255.25;4777930;29;20077;-80
2022/02/21 01:31:53;;;;;;;;;;;;;;;8.36;57.81;95243.78;4818728;29;20059;-82
2022/02/21 01:34:21;;;;;;;1.40;0.20;;;;;;;8.31;57.50;95227.69;4783789;29;20012;-83
2022/02/21 01:36:53;;;;;;;1.35;0.30;;;;;;;8.29;58.21;95210.94;4814445;29;20581;-81
2022/02/21 01:39:20;;;;;;;0.47;0.30;;;;;;;8.28;58.09;95201.22;4807149;29;20051;-80
2022/02/21 01:44:43;;;;;;;1.50;0.40;;;;;;;8.32;57.35;95191.28;4848154;23;20089;-81
2022/02/21 01:56:20;;;;;;;2.33;0.50;;;;;;;8.31;56.83;95151.75;4855018;29;20053;-81
2022/02/21 01:58:52;;;;;;;2.38;0.47;;;;;;;8.30;57.25;95145.53;4888171;23;20053;-83
2022/02/21 02:05:00;;;;;;;0.40;0.30;;;;;;;8.42;56.34;95158.38;4855725;29;20038;-82
2022/02/21 02:07:28;;;;;;;1.27;0.50;;;;;;;8.40;56.46;95122.63;4870638;29;20053;-82
2022/02/21 02:09:57;;;;;;;0.50;0.20;;;;;;;8.51;55.91;95131.97;4871817;29;20061;-82
2022/02/21 02:12:33;;;;;;;2.15;0.60;;;;;;;8.44;55.94;95126.25;4874038;29;20051;-82
2022/02/21 02:15:04;;;;;;;0.77;0.47;;;;;;;8.46;56.39;95104.25;4862063;29;20053;-81
2022/02/21 02:17:51;;;;;;;1.60;0.60;;;;;;;8.51;55.49;95112.97;4854793;29;20077;-79
2022/02/21 02:20:23;;;;;;;2.17;0.50;;;;;;;8.44;56.42;95111.91;4850668;29;20050;-82
2022/02/21 02:23:07;;;;;;;0.65;0.35;;;;;;;8.47;55.51;95093.06;4859950;29;20121;-79
2022/02/21 02:25:35;;;;;;;0.60;0.35;;;;;;;8.48;55.99;95067.50;4869519;29;20634;-80
2022/02/21 02:28:12;;;;;;;2.40;0.68;;;;;;;8.47;55.94;95068.63;4856734;29;20045;-81
2022/02/21 02:30:41;;;;;;;1.27;0.30;;;;;;;8.52;55.97;95076.56;4848702;29;20069;-81
2022/02/21 02:33:23;;;;;;;1.02;0.38;;;;;;;8.52;55.85;95063.00;4856387;29;20045;-82
2022/02/21 02:35:50;;;;;;;0.50;0.30;;;;;;;8.65;54.67;95063.00;4872831;29;20053;-82
2022/02/21 02:38:20;;;;;;;0.88;0.40;;;;;;;8.65;55.46;95035.88;4865813;29;20061;-83
2022/02/21 02:40:51;;;;;;;1.35;0.32;;;;;;;8.70;54.67;95043.78;4868554;29;20049;-82
2022/02/21 02:43:19;;;;;;;1.17;0.35;;;;;;;8.69;54.66;95020.50;4859321;29;20084;-81
2022/02/21 02:45:47;;;;;;;0.90;0.30;;;;;;;8.71;54.45;95023.66;4863987;29;20101;-83
2022/02/21 02:48:16;;;;;;;0.68;0.30;;;;;;;8.72;54.27;95019.81;5058237;24;20046;-82
2022/02/21 02:50:44;;;;;;;1.73;0.40;;;;;;;8.82;53.76;95027.50;4815816;29;20055;-80
2022/02/21 02:55:49;;;;;;;2.80;0.60;;;;;;;8.80;54.35;95002.66;5044114;23;20058;-82
2022/02/21 02:58:31;;;;;;;1.15;0.32;;;;;;;8.74;54.29;94991.22;4836577;29;20133;-81
2022/02/21 03:01:39;;;;;;;1.38;0.30;;;;;;;8.79;53.85;94988.28;4813432;29;20078;-84
2022/02/21 03:06:51;;;;;;;2.20;0.32;;;;;;;8.91;53.29;94995.63;4944615;24;20050;-83
2022/02/21 03:09:20;;;;;;;3.25;0.20;;;;;;;8.97;52.59;94966.31;4942758;24;20050;-84
2022/02/21 03:11:50;;;;;;;0.20;0.10;;;;;;;8.94;53.06;94981.38;4827250;29;20102;-82
2022/02/21 03:14:16;;;;;;;0.70;0.20;;;;;;;8.94;53.10;94994.16;4862893;24;20631;-83
2022/02/21 03:17:00;;;;;;;1.27;0.30;;;;;;;8.98;52.26;94952.44;4834991;23;20054;-83
2022/02/21 03:19:45;;;;;;;0.63;0.30;;;;;;;8.97;52.63;94928.31;4828732;29;20046;-83
2022/02/21 03:24:59;;;;;;;1.98;0.43;;;;;;;8.98;51.67;94922.56;4827870;29;20054;-83
2022/02/21 03:30:46;;;;;;;2.00;0.60;;;;;;;9.02;51.98;94925.38;4816663;29;20081;-82
2022/02/21 03:33:15;;;;;;;0.38;0.28;;;;;;;9.00;52.36;94906.72;4836130;29;20047;-82
2022/02/21 03:35:42;;;;;;;1.92;0.30;;;;;;;9.01;52.06;94899.34;4834017;29;20129;-81
2022/02/21 03:40:52;;;;;;;1.50;0.50;;;;;;;8.95;52.84;94893.38;4882401;23;20033;-83
2022/02/21 03:43:21;;;;;;;0.75;0.22;;;;;;;9.02;51.53;94900.94;4855002;29;20058;-83
2022/02/21 03:45:53;;;;;;;1.05;0.40;;;;;;;9.08;51.52;94903.09;4865455;29;20144;-82
2022/02/21 03:48:25;;;;;;;1.58;0.30;;;;;;;9.00;52.44;94906.72;4827842;29;20470;-83
2022/02/21 03:56:06;;;;;;;2.35;0.55;;;;;;;8.98;52.76;94898.13;4816795;29;20033;-82
2022/02/21 03:58:43;;;;;;;0.50;0.20;;;;;;;9.01;52.12;94885.78;4820326;29;20050;-83
2022/02/21 04:06:21;;;;;;;1.60;0.40;;;;;;;9.05;52.61;94898.31;4854024;29;20129;-82
2022/02/21 04:08:48;;;;;;;1.83;0.40;;;;;;;9.00;53.94;94912.13;4847894;24;20047;-81
2022/02/21 04:11:15;;;;;;;1.60;0.40;;;;;;;8.99;53.29;94896.97;4807644;29;20066;-84
2022/02/21 04:13:44;;;;;;;0.75;0.40;;;;;;;8.95;53.42;94887.94;4806283;29;20043;-84
2022/02/21 04:16:38;;;;;;;0.55;0.30;;;;;;;8.99;52.84;94877.97;4788194;29;20039;-84
2022/02/21 04:19:15;;;;;;;4.65;0.45;;;;;;;9.02;52.92;94871.06;4759453;29;20077;-82
2022/02/21 04:24:22;;;;;;;0.98;0.43;;;;;;;9.05;52.74;94865.75;4828288;29;20058;-83
2022/02/21 04:26:59;;;;;;;0.52;0.20;;;;;;;9.04;53.56;94871.53;4819677;29;20054;-82
2022/02/21 04:29:30;;;;;;;0.82;0.32;;;;;;;8.93;53.93;94876.66;4958846;23;20142;-83
2022/02/21 04:31:57;;;;;;;1.30;0.32;;;;;;;8.88;54.75;94855.16;4822767;29;20118;-83
2022/02/21 04:34:25;;;;;;;0.20;0.20;;;;;;;8.80;55.13;94867.72;4819761;29;20134;-84
2022/02/21 04:37:04;;;;;;;0.60;0.20;;;;;;;8.87;53.84;94864.41;5381541;23;20046;-82
2022/02/21 04:39:31;;;;;;;0.30;0.22;;;;;;;8.92;53.92;94894.03;4872671;23;20140;-82
2022/02/21 04:42:01;;;;;;;0.70;0.15;;;;;;;8.90;54.06;94880.03;4874571;29;20148;-84
2022/02/21 04:44:30;;;;;;;0.10;0.10;;;;;;;8.87;54.89;94880.72;4861499;24;20098;-82
2022/02/21 04:46:59;;;;;;;2.00;0.20;;;;;;;8.85;55.26;94885.69;4837253;29;20074;-81
2022/02/21 04:54:35;;;;;;;0.80;0.43;;;;;;;8.73;55.78;94843.09;4102651;27;20057;-81
2022/02/21 04:57:02;;;;;;;1.75;0.20;;;;;;;8.69;56.04;94842.19;4828927;29;20079;-81
2022/02/21 04:59:36;;;;;;;0.75;0.30;;;;;;;8.66;56.53;94856.44;4852383;29;20109;-81
2022/02/21 05:02:09;;;;;;;0.25;0.20;;;;;;;8.65;56.88;94851.34;4879071;23;20109;-80
2022/02/21 05:04:36;;;;;;;0.35;0.17;;;;;;;8.53;58.02;94847.53;4848956;29;20102;-81
2022/02/21 05:07:04;;;;;;;0.38;0.20;;;;;;;8.52;57.37;94837.81;4847645;29;20061;-80
2022/02/21 05:09:31;;;;;;;2.45;0.30;;;;;;;8.44;58.26;94836.00;4844158;29;20497;-80
2022/02/21 05:11:58;;;;;;;1.05;0.30;;;;;;;8.40;58.20;94845.16;4842851;29;20068;-81
2022/02/21 05:14:25;;;;;;;0.65;0.40;;;;;;;8.36;58.67;94834.22;4833684;29;20042;-80
2022/02/21 05:16:54;;;;;;;0.85;0.20;;;;;;;8.32;58.39;94838.72;4826470;29;20191;-80
2022/02/21 05:19:21;;;;;;;0.85;0.30;;;;;;;8.28;59.06;94833.16;4824713;29;20111;-80
2022/02/21 05:21:48;;;;;;;0.52;0.20;;;;;;;8.28;59.30;94813.41;4825344;29;20059;-81
2022/02/21 05:24:15;;;;;;;1.85;0.60;;;;;;;8.31;59.04;94845.28;4828098;29;20045;-81
2022/02/21 05:26:42;;;;;;;0.30;0.15;;;;;;;8.27;59.43;94815.31;4829133;29;20078;-81
2022/02/21 05:29:10;;;;;;;0.10;0.10;;;;;;;8.18;61.27;94824.69;4825911;29;20050;-81
2022/02/21 05:31:37;;;;;;;0.30;0.20;;;;;;;8.16;60.52;94810.69;4825997;29;20084;-81
2022/02/21 05:34:06;;;;;;;1.08;0.20;;;;;;;8.16;61.32;94802.56;4825308;29;20053;-81
2022/02/21 05:36:33;;;;;;;0.30;0.20;;;;;;;8.13;61.00;94820.28;4825067;29;20053;-80
2022/02/21 05:39:03;;;;;;;0.25;0.17;;;;;;;8.16;60.53;94825.03;4826612;29;20061;-81
2022/02/21 05:41:30;;;;;;;0.65;0.30;;;;;;;8.20;60.29;94803.47;4819445;29;20053;-80
2022/02/21 05:44:01;;;;;;;0.30;0.20;;;;;;;8.22;59.85;94817.47;4857257;23;20105;-81
2022/02/21 05:46:29;;;;;;;1.23;0.30;;;;;;;8.18;60.13;94787.53;4849069;29;20064;-80
2022/02/21 05:48:55;;;;;;;0.40;0.20;;;;;;;8.18;60.09;94794.88;4839345;29;20049;-81
2022/02/21 05:51:24;;;;;;;0.25;0.20;;;;;;;8.20;60.38;94793.41;4846051;29;20061;-81
2022/02/21 05:53:51;;;;;;;0.32;0.20;;;;;;;8.19;62.45;94810.00;4844744;29;20061;-82
2022/02/21 05:56:18;;;;;;;1.27;0.35;;;;;;;7.78;69.22;94831.59;4845422;29;20056;-80
2022/02/21 05:58:45;;;;;;;0.20;0.20;;;;;;;7.49;72.04;94853.41;4848343;29;20560;-81
2022/02/21 06:01:18;;;;;;;3.05;0.80;;;;;;;6.94;80.76;94949.25;4849219;29;20053;-82
2022/02/21 06:03:44;;;;;;;3.72;0.40;;;;;;;5.08;82.43;94994.75;4851760;29;20118;-81
2022/02/21 06:06:13;;;;;;;3.08;0.35;;;;;;;4.53;87.87;95011.44;4844599;29;20060;-82
2022/02/21 06:08:42;;;;;;;2.50;0.30;;;;;;;4.24;91.71;95026.22;4843852;29;20054;-81
2022/02/21 06:11:09;;;;;;;3.10;0.40;;;;;;;4.06;94.24;95035.31;4845444;29;20054;-82
2022/02/21 06:13:36;;;;;;;1.13;0.25;;;;;;;3.76;94.68;95064.59;4842992;29;20066;-80
2022/02/21 06:16:03;;;;;;;1.17;0.30;;;;;;;3.69;95.99;95079.56;4846240;29;20064;-80
2022/02/21 06:18:30;;;;;;;2.13;0.38;;;;;;;3.60;97.06;95087.56;4845051;29;20056;-81
2022/02/21 06:21:03;;;;;;;2.80;0.40;;;;;;;3.55;98.31;95106.53;4844380;29;20086;-83
2022/02/21 06:23:30;;;;;;;5.53;0.70;;;;;;;3.40;98.15;95121.94;4857875;29;20109;-82
2022/02/21 06:26:01;;;;;;;1.52;0.55;;;;;;;3.03;96.43;95122.19;4879528;23;20615;-80
2022/02/21 06:28:28;;;;;;;3.75;0.73;;;;;;;2.82;94.98;95127.19;4858084;29;20124;-80
2022/02/21 06:30:55;;;;;;;4.53;0.73;;;;;;;2.78;95.48;95143.09;4858118;29;20589;-80
2022/02/21 06:33:22;;;;;;;2.28;0.50;;;;;;;2.57;94.96;95131.13;4857582;29;20136;-80
2022/02/21 06:35:48;;;;;;;1.35;0.40;;;;;;;2.38;94.46;95127.72;4856730;29;20064;-81
2022/02/21 06:38:15;;;;;;;4.05;1.05;;;;;;;2.43;95.22;95124.94;4856845;29;20056;-79
2022/02/21 06:40:42;;;;;;;5.60;0.52;;;;;;;2.34;95.00;95122.13;4857877;29;20054;-80
2022/02/21 06:43:11;;;;;;;3.10;0.70;;;;;;;2.43;95.11;95114.97;4856538;29;20050;-81
2022/02/21 06:45:38;;;;;;;1.17;0.57;;;;;;;2.30;94.23;95126.50;4857613;29;20050;-82
2022/02/21 06:48:05;;;;;;;6.10;0.88;;;;;;;2.37;94.35;95126.13;4856377;29;20057;-79
2022/02/21 06:50:32;;;;;;;2.50;0.60;;;;;;;2.39;94.18;95130.09;4855481;29;20056;-81
2022/02/21 06:52:59;;;;;;;2.75;0.88;;;;;;;2.43;93.52;95114.97;4855285;29;20057;-79
2022/02/21 06:55:26;;;;;;;1.48;0.50;;;;;;;2.52;94.28;95123.16;4857974;29;20057;-81
2022/02/21 06:57:54;;;;;;;4.65;0.80;;;;;;;2.52;92.20;95144.66;4857013;29;20054;-81
2022/02/21 07:00:22;;;;;;;1.27;0.50;;;;;;;2.55;91.91;95147.53;4856830;29;20057;-79
2022/02/21 07:02:49;;;;;;;1.73;0.50;;;;;;;2.55;91.25;95144.06;4857193;29;20049;-79
2022/02/21 07:05:16;;;;;;;2.97;0.80;;;;;;;2.57;90.00;95136.50;4856995;29;20335;-80
2022/02/21 07:07:42;;;;;;;1.90;0.60;;;;;;;2.60;89.89;95142.06;4856757;29;20513;-82
2022/02/21 07:10:10;;;;;;;2.47;0.60;;;;;;;2.61;89.30;95137.53;4858458;29;20056;-80
2022/02/21 07:12:37;;;;;;;4.90;0.80;;;;;;;2.56;88.64;95121.50;4854298;29;20045;-81
2022/02/21 07:15:04;;;;;;;6.47;0.80;;;;;;;2.59;87.53;95148.53;4855721;29;20751;-83
2022/02/21 07:17:38;;;;;;;3.55;0.90;;;;;;;2.69;88.07;95155.63;4855951;29;20535;-80
2022/02/21 07:20:07;;;;;;;2.58;0.60;;;;;;;2.75;87.13;95162.50;4855450;29;20061;-80
2022/02/21 07:22:33;;;;;;;2.15;0.40;;;;;;;2.74;85.53;95158.22;4857469;29;20144;-79
2022/02/21 07:25:00;;;;;;;2.95;0.60;;;;;;;2.77;86.09;95156.84;4855866;29;20057;-79
2022/02/21 07:27:26;;;;;;;1.00;0.40;;;;;;;2.70;84.14;95178.72;4856037;29;20049;-80
2022/02/21 07:29:53;;;;;;;1.75;0.57;;;;;;;2.64;83.30;95217.53;4855775;29;20136;-80
2022/02/21 07:32:19;;;;;;;3.13;0.75;;;;;;;2.68;84.26;95218.53;4855529;29;20053;-80
2022/02/21 07:34:47;;;;;;;1.60;0.47;;;;;;;2.75;83.74;95215.47;4857688;29;20054;-81
2022/02/21 07:37:14;;;;;;;3.28;0.70;;;;;;;2.87;84.12;95230.03;4856930;29;20099;-80
2022/02/21 07:39:40;;;;;;;2.85;0.68;;;;;;;2.79;82.41;95225.34;4856948;29;20057;-79
2022/02/21 07:42:08;;;;;;;2.10;0.90;;;;;;;2.82;82.65;95213.22;4852905;29;20061;-79
2022/02/21 07:44:35;;;;;;;2.25;0.80;;;;;;;2.95;83.08;95211.63;4856546;29;20559;-80
2022/02/21 07:47:01;;;;;;;4.22;0.68;;;;;;;2.92;82.80;95258.72;4855420;29;20056;-80
2022/02/21 07:49:28;;;;;;;2.90;0.60;;;;;;;2.87;81.73;95270.38;4856360;29;20060;-79
2022/02/21 07:51:56;;;;;;;3.00;0.70;;;;;;;2.85;80.94;95269.84;4856784;29;20072;-80
2022/02/21 07:54:24;;;;;;;5.90;0.80;;;;;;;2.82;80.75;95246.25;4856767;29;20053;-80
2022/02/21 07:56:51;;;;;;;1.42;0.50;;;;;;;2.79;81.37;95251.44;4857685;29;20079;-81
2022/02/21 07:59:18;;;;;;;0.80;0.40;;;;;;;2.71;81.30;95270.91;4856466;29;20472;-79
2022/02/21 08:01:44;;;;;;;1.55;0.57;;;;;;;2.66;82.22;95274.47;4855350;29;20049;-79
2022/02/21 08:04:11;;;;;;;7.80;0.82;;;;;;;2.63;81.85;95288.50;4854584;29;20054;-82
2022/02/21 08:06:37;;;;;;;2.15;0.43;;;;;;;2.59;82.17;95339.34;4855834;29;20057;-79
2022/02/21 08:09:05;;;;;;;1.75;0.43;;;;;;;2.55;82.21;95364.41;4854318;29;20049;-80
2022/02/21 08:11:33;;;;;;;1.73;0.68;;;;;;;2.54;82.71;95378.94;4855230;29;20049;-79
2022/02/21 08:14:00;;;;;;;3.40;0.68;;;;;;;2.53;83.05;95372.78;4838692;29;20510;-79
2022/02/21 08:16:26;;;;;;;1.20;0.47;;;;;;;2.53;82.21;95393.47;4836360;29;20057;-80
2022/02/21 08:18:53;;;;;;;2.85;0.65;;;;;;;2.46;82.01;95388.47;4835842;29;20421;-80
2022/02/21 08:21:19;;;;;;;2.38;0.82;;;;;;;2.54;82.62;95384.31;4835796;29;20176;-80
2022/02/21 08:23:46;;;;;;;3.85;0.70;;;;;;;2.59;81.94;95370.81;4837433;29;20050;-80
2022/02/21 08:26:14;;;;;;;3.55;0.75;;;;;;;2.65;81.16;95366.94;4834873;29;20057;-80
2022/02/21 08:28:41;;;;;;;2.22;0.75;;;;;;;2.71;81.10;95389.19;4837994;29;20411;-79
2022/02/21 08:31:07;;;;;;;2.00;0.50;;;;;;;2.72;80.46;95401.56;4836639;29;20050;-79
2022/02/21 08:33:34;;;;;;;5.65;0.80;;;;;;;2.77;80.38;95394.22;4838532;29;20066;-78
2022/02/21 08:36:01;;;;;;;3.17;0.70;;;;;;;2.92;82.10;95395.06;4838516;29;20070;-79
2022/02/21 08:38:27;;;;;;;5.03;0.88;;;;;;;2.98;81.31;95423.50;4838537;29;20046;-80
2022/02/21 08:40:54;;;;;;;2.17;0.73;;;;;;;2.96;80.26;95460.63;4840556;29;20514;-82
2022/02/21 08:43:25;;;;;;;3.35;0.90;;;;;;;2.99;80.48;95495.00;4841140;29;20798;-82
2022/02/21 08:45:52;;;;;;;2.38;0.50;;;;;;;2.96;79.47;95492.88;4841668;29;20430;-80
2022/02/21 08:48:18;;;;;;;3.05;0.60;;;;;;;2.99;80.34;95486.94;4840504;29;20054;-80
2022/02/21 08:50:45;;;;;;;4.68;0.90;;;;;;;3.04;79.92;95476.09;4859205;29;20060;-81
2022/02/21 08:53:12;;;;;;;5.88;0.90;;;;;;;3.05;78.43;95465.06;4877481;29;20053;-79
2022/02/21 08:55:38;;;;;;;3.08;0.95;;;;;;;3.12;78.63;95464.66;4878486;29;20084;-79
2022/02/21 08:58:05;;;;;;;18.27;0.95;;;;;;;3.19;77.11;95459.75;4878385;29;20064;-80
2022/02/21 09:00:33;;;;;;;3.60;0.70;;;;;;;3.18;76.60;95474.25;4878253;29;20049;-79
2022/02/21 09:02:59;;;;;;;4.15;1.20;;;;;;;3.20;76.66;95490.94;4876562;29;20053;-78
2022/02/21 09:05:26;;;;;;;4.97;1.10;;;;;;;3.27;78.15;95483.28;4877225;29;20469;-79
2022/02/21 09:07:52;;;;;;;8.50;1.10;;;;;;;3.43;76.86;95528.78;4883100;29;20056;-78
2022/02/21 09:10:19;;;;;;;4.05;0.70;;;;;;;3.46;75.12;95534.41;4878484;29;20057;-80
2022/02/21 09:12:45;;;;;;;1.73;0.60;;;;;;;3.42;74.93;95511.06;4869189;29;20057;-80
2022/02/21 09:15:13;;;;;;;2.60;0.52;;;;;;;3.53;74.86;95507.09;4857241;29;20061;-82
2022/02/21 09:17:41;;;;;;;3.80;0.80;;;;;;;3.59;75.71;95517.47;4859481;29;20050;-80
2022/02/21 09:20:08;;;;;;;2.38;0.52;;;;;;;3.55;73.76;95515.66;4857111;29;20057;-81
2022/02/21 09:22:35;;;;;;;2.70;0.50;;;;;;;3.62;74.80;95511.53;4858768;29;20053;-80
2022/02/21 09:25:01;;;;;;;3.30;0.80;;;;;;;3.67;74.21;95507.97;4856897;29;20061;-82
2022/02/21 09:27:28;;;;;;;2.63;0.75;;;;;;;3.75;73.33;95520.72;4857617;29;20081;-78
2022/02/21 09:29:54;;;;;;;1.02;0.50;;;;;;;3.75;71.42;95518.03;4858130;29;20068;-80
2022/02/21 09:32:21;;;;;;;4.28;0.82;;;;;;;3.81;71.64;95508.81;4856546;29;20501;-79
2022/02/21 09:34:49;;;;;;;2.25;0.75;;;;;;;3.87;70.90;95513.00;4858635;29;20087;-80
2022/02/21 09:37:15;;;;;;;3.75;0.93;;;;;;;4.03;73.02;95499.28;4857396;29;20054;-79
2022/02/21 09:39:42;;;;;;;2.53;0.50;;;;;;;4.28;69.56;95500.69;4858117;29;20050;-80
2022/02/21 09:42:08;;;;;;;1.35;0.50;;;;;;;4.45;69.66;95507.09;4856422;29;20056;-80
2022/02/21 09:44:35;;;;;;;2.90;0.70;;;;;;;4.47;67.42;95516.78;4856689;29;20053;-79
2022/02/21 09:47:03;;;;;;;2.67;0.60;;;;;;;4.33;68.05;95514.88;4858117;29;20057;-80
2022/02/21 09:49:30;;;;;;;2.58;0.45;;;;;;;4.17;66.21;95513.53;4858192;29;20496;-79
2022/02/21 09:51:58;;;;;;;2.67;0.93;;;;;;;4.08;68.12;95516.13;4857106;29;20050;-81
2022/02/21 09:54:26;;;;;;;2.70;0.80;;;;;;;4.06;66.35;95520.22;4858051;29;20053;-79
2022/02/21 09:56:55;;;;;;;3.92;1.20;;;;;;;4.00;68.97;95537.56;4857749;29;20061;-80
2022/02/21 09:59:22;;;;;;;10.35;1.13;;;;;;;3.91;69.01;95526.66;4856274;29;20163;-80
2022/02/21 10:01:48;;;;;;;5.70;0.93;;;;;;;3.87;69.61;95529.16;4858635;29;20054;-80
2022/02/21 10:04:23;;;;;;;4.47;0.90;;;;;;;3.97;69.47;95548.91;4860690;29;20054;-80
2022/02/21 10:06:51;;;;;;;2.45;0.70;;;;;;;4.16;67.09;95541.59;4860391;29;20061;-79
2022/02/21 10:09:24;;;;;;;3.05;0.50;;;;;;;4.22;68.27;95535.00;4858294;29;20057;-79
2022/02/21 10:11:51;;;;;;;1.85;0.50;;;;;;;4.05;65.31;95540.16;4857881;29;20045;-79
2022/02/21 10:14:20;;;;;;;4.72;0.82;;;;;;;3.99;67.26;95535.97;4854635;29;20053;-79
2022/02/21 10:16:48;;;;;;;3.63;0.80;;;;;;;4.10;66.79;95532.00;4856518;29;20057;-79
2022/02/21 10:19:18;;;;;;;1.55;0.47;;;;;;;4.18;65.99;95539.41;4856573;29;20054;-80
2022/02/21 10:22:05;;;;;;;3.55;0.73;;;;;;;4.28;63.91;95523.06;4857418;29;20116;-80
2022/02/21 10:24:41;;;;;;;5.07;0.82;;;;;;;4.37;65.99;95545.50;4858511;29;20536;-79
2022/02/21 10:27:10;;;;;;;2.25;0.77;;;;;;;4.43;65.32;95532.72;4858789;29;20053;-79
2022/02/21 10:29:47;;;;;;;4.13;0.93;;;;;;;4.41;65.64;95543.81;4857068;29;20050;-80
2022/02/21 10:32:15;;;;;;;4.32;1.77;;;;;;;4.39;65.40;95534.44;4857096;29;20061;-81
2022/02/21 10:34:45;;;;;;;12.27;1.58;;;;;;;4.35;67.60;95555.81;4856382;29;20057;-78
2022/02/21 10:37:13;;;;;;;2.05;0.70;;;;;;;4.22;64.26;95540.41;4857184;29;20073;-77
2022/02/21 10:39:41;;;;;;;6.05;0.75;;;;;;;4.20;64.96;95529.13;4856919;29;20053;-81
2022/02/21 10:42:09;;;;;;;7.53;1.48;;;;;;;4.20;65.34;95526.44;4855388;29;20058;-78
2022/02/21 10:44:37;;;;;;;6.43;0.85;;;;;;;4.46;65.97;95515.97;4837899;29;20050;-78
2022/02/21 10:47:13;;;;;;;3.92;0.95;;;;;;;4.63;65.85;95512.66;4838194;29;20425;-80
2022/02/21 10:49:47;;;;;;;3.03;0.90;;;;;;;4.71;64.41;95514.69;4837790;29;20429;-79
2022/02/21 10:52:16;;;;;;;5.20;0.70;;;;;;;4.95;62.92;95509.81;4837462;29;20058;-78
2022/02/21 10:54:45;;;;;;;7.82;1.45;;;;;;;5.00;62.78;95511.63;4837817;29;20064;-79
2022/02/21 10:57:14;;;;;;;3.30;0.60;;;;;;;4.93;63.20;95514.75;4837613;29;20057;-78
2022/02/21 10:59:41;;;;;;;6.75;0.73;;;;;;;4.88;62.00;95495.97;4838885;29;20064;-79
2022/02/21 11:02:10;;;;;;;5.95;0.85;;;;;;;4.82;61.83;95510.66;4836683;29;20502;-79
2022/02/21 11:04:39;;;;;;;4.65;1.10;;;;;;;4.69;61.66;95495.28;4838799;29;20054;-79
2022/02/21 11:07:06;;;;;;;4.63;0.98;;;;;;;4.65;61.68;95497.00;4836627;29;20081;-79
2022/02/21 11:09:33;;;;;;;2.80;0.77;;;;;;;4.65;60.51;95505.09;4838688;29;20049;-79
2022/02/21 11:12:04;;;;;;;3.67;0.77;;;;;;;4.57;61.32;95503.09;4837168;29;20062;-79
2022/02/21 11:14:33;;;;;;;4.00;0.80;;;;;;;4.50;60.87;95500.00;4856090;29;20683;-79
2022/02/21 11:17:02;;;;;;;6.05;0.95;;;;;;;4.52;61.32;95500.50;4855930;29;20068;-80
2022/02/21 11:19:28;;;;;;;2.20;0.55;;;;;;;4.48;61.62;95494.09;4854702;29;20042;-78
2022/02/21 11:21:56;;;;;;;5.20;0.80;;;;;;;4.43;60.87;95497.69;4855355;29;20520;-79
2022/02/21 11:24:24;;;;;;;2.08;0.70;;;;;;;4.45;60.09;95506.28;4854539;29;20054;-79
2022/02/21 11:27:07;;;;;;;2.00;0.57;;;;;;;4.42;61.54;95496.09;4857027;29;20049;-79
2022/02/21 11:29:42;;;;;;;5.18;0.88;;;;;;;4.44;61.42;95493.91;4855891;29;20052;-79
2022/02/21 11:32:16;;;;;;;6.30;1.08;;;;;;;4.51;61.25;95488.13;4854161;29;20056;-80
2022/02/21 11:34:46;;;;;;;3.60;0.70;;;;;;;4.55;60.70;95489.91;4861696;29;20061;-79
2022/02/21 11:37:26;;;;;;;3.55;0.65;;;;;;;4.56;60.99;95480.72;4855201;29;20084;-79
2022/02/21 11:40:01;;;;;;;6.18;0.93;;;;;;;4.60;63.19;95472.84;4856406;29;20083;-80
2022/02/21 11:42:30;;;;;;;6.22;1.83;;;;;;;4.60;62.19;95473.63;4850681;29;20057;-78
2022/02/21 11:44:59;;;;;;;6.75;1.13;;;;;;;4.59;65.50;95471.22;4837734;29;20054;-79
2022/02/21 11:47:34;;;;;;;3.45;0.82;;;;;;;4.74;64.95;95460.13;4837061;29;20618;-79
2022/02/21 11:50:02;;;;;;;2.75;0.77;;;;;;;4.77;64.44;95440.66;4837998;29;20425;-81
2022/02/21 11:52:32;;;;;;;2.40;1.00;;;;;;;4.74;63.44;95443.94;4836905;29;20057;-79
2022/02/21 11:54:58;;;;;;;5.38;1.02;;;;;;;4.67;64.07;95438.16;4837380;29;20054;-79
2022/02/21 11:57:37;;;;;;;2.92;0.95;;;;;;;4.65;65.19;95437.69;4837212;29;20042;-79
2022/02/21 12:00:38;;;;;;;3.90;0.88;;;;;;;4.70;65.24;95438.38;4836644;29;20086;-79
2022/02/21 12:03:08;;;;;;;4.40;1.02;;;;;;;4.59;64.18;95457.75;4837707;29;20049;-79
2022/02/21 12:05:35;;;;;;;2.72;0.73;;;;;;;4.37;67.86;95453.88;4837399;29;20613;-80
2022/02/21 12:08:19;;;;;;;7.28;1.05;;;;;;;4.27;70.31;95454.06;4836700;29;20054;-79
2022/02/21 12:11:19;;;;;;;5.18;1.48;;;;;;;4.40;71.19;95434.41;4837506;29;20050;-79
2022/02/21 12:14:22;;;;;;;3.63;0.95;;;;;;;4.93;69.86;95431.09;4850121;29;20052;-79
2022/02/21 12:17:08;;;;;;;3.97;0.80;;;;;;;5.47;68.99;95423.09;4802262;29;20109;-79
2022/02/21 12:19:40;;;;;;;3.08;0.88;;;;;;;5.92;66.36;95421.16;4855872;29;20157;-79
2022/02/21 12:22:15;;;;;;;8.15;1.45;;;;;;;6.10;63.85;95418.53;4857995;29;20561;-80
2022/02/21 12:25:19;;;;;;;3.53;0.95;;;;;;;5.89;63.85;95405.53;4860352;29;20053;-80
2022/02/21 12:28:14;;;;;;;6.45;1.17;;;;;;;6.33;62.58;95401.13;4859773;29;20049;-79
2022/02/21 12:30:45;;;;;;;2.85;0.75;;;;;;;6.61;62.53;95395.47;4858192;29;20132;-79
2022/02/21 12:33:12;;;;;;;4.47;0.75;;;;;;;6.60;60.59;95388.47;4859143;29;20095;-79
2022/02/21 12:35:53;;;;;;;6.57;1.00;;;;;;;6.19;60.03;95395.03;4859776;29;20062;-80
2022/02/21 12:38:20;;;;;;;4.07;1.23;;;;;;;6.48;58.48;95386.38;4859724;29;20077;-79
2022/02/21 12:40:59;;;;;;;4.97;0.85;;;;;;;6.88;57.31;95384.34;4859430;29;20576;-79
2022/02/21 12:43:40;;;;;;;4.65;1.00;;;;;;;6.91;58.37;95377.50;4856981;29;20069;-79
2022/02/21 12:46:08;;;;;;;4.70;0.80;;;;;;;6.69;56.18;95375.75;4857896;29;20056;-79
2022/02/21 12:48:36;;;;;;;2.75;0.88;;;;;;;6.41;57.17;95365.19;4858182;29;20073;-80
2022/02/21 12:51:03;;;;;;;3.92;1.15;;;;;;;6.94;55.27;95372.28;4858560;29;20050;-80
2022/02/21 12:53:29;;;;;;;1.85;0.65;;;;;;;6.96;54.81;95388.19;4859360;29;20053;-80
2022/02/21 12:55:59;;;;;;;6.93;1.08;;;;;;;6.65;55.53;95359.34;4860323;29;20060;-79
2022/02/21 12:58:35;;;;;;;2.00;0.47;;;;;;;6.85;55.92;95357.94;4859339;29;20045;-79